WEATHER DATA

YESTERDAY
Time Temp. Dewp. Hum. Bar.
00:00 24.6 17.8 66 1009.9
00:10 24.4 17.9 67 1010
00:19 24.1 17.6 67 1010
00:30 23.9 17.4 67 1010.1
00:40 23.6 17.4 68 1010
00:50 23.4 17.4 69 1010
00:59 23.3 17.3 69 1010
01:10 23.1 17.3 70 1010
01:20 22.9 17.1 70 1010
01:30 22.9 17.1 70 1010
01:41 22.9 17.1 70 1010.1
01:50 22.8 17 70 1010.2
02:00 22.6 17.1 71 1010.1
02:10 22.5 17 71 1010
02:21 22.4 16.9 71 1010
02:31 22.4 16.9 71 1010
02:40 22.4 16.9 71 1009.9
02:51 23.4 16.9 67 1009.9
03:01 23.4 16.9 67 1009.9
03:11 22.8 16.6 68 1009.9
03:20 22.5 16.5 69 1009.9
03:31 22.4 16.7 70 1009.9
03:41 22.3 16.6 70 1009.9
03:51 22.2 16.5 70 1009.9
04:01 22.3 16.6 70 1009.8
04:11 22.3 16.3 69 1009.8
04:21 22.5 16.5 69 1009.8
04:31 22.9 16.5 67 1009.8
04:42 23.1 16.4 66 1009.8
04:52 22.9 16.5 67 1009.8
05:01 23.3 16.4 65 1009.8
05:12 23.6 16.4 64 1009.7
05:22 23.7 16.5 64 1009.7
05:32 23.1 16.4 66 1009.7
05:41 22.9 16.2 66 1009.8
05:52 23 16.3 66 1009.8
06:02 22.6 16.2 67 1009.9
06:12 22.3 16.1 68 1009.9
06:22 22.4 16.2 68 1009.9
06:33 22.5 16.1 67 1009.8
06:42 22.9 16 65 1009.8
06:52 23.3 16.1 64 1009.9
07:02 23.6 16.4 64 1009.9
07:13 23.8 16.3 63 1009.9
07:23 23.9 16.4 63 1009.9
07:32 24.2 16.5 62 1010
07:43 24.4 16.7 62 1009.9
07:53 24.6 16.6 61 1009.9
08:03 24.8 16.8 61 1009.9
08:12 25.1 17.1 61 1009.9
08:23 25.4 16.8 59 1009.9
08:33 25.7 17.1 59 1009.9
08:43 26.1 17.2 58 1010
08:54 26.4 17.2 57 1010.1
09:03 26.7 17.5 57 1010.2
09:13 27.1 17.6 56 1010.2
09:23 27.5 17.7 55 1010.1
09:34 27.8 17.9 55 1010.1
09:44 28 17.8 54 1010
09:53 28.4 17.9 53 1010
10:04 28.7 18.2 53 1010
10:14 29.2 18 51 1010
10:24 29.4 17.9 50 1010
10:34 29.6 17.8 49 1010
10:44 30 17.8 48 1009.9
10:54 30.5 17.9 47 1009.9
11:04 31.2 17.9 45 1009.9
11:14 31.8 18.4 45 1009.9
11:24 32 18.6 45 1009.8
11:34 31.9 18.5 45 1009.8
11:44 32 18.6 45 1009.8
11:55 32.6 18.8 44 1009.8
12:04 33 18.8 43 1009.8
12:14 33.2 18.6 42 1009.8
12:25 33.1 18.8 43 1009.7
12:35 32.9 19 44 1009.7
12:45 33.2 18.9 43 1009.6
12:54 33.3 19.8 45 1009.6
13:05 33.3 19.4 44 1009.5
13:17 33.5 19.9 45 1009.3
13:27 33.5 20.3 46 1009.2
13:32 33.6 20.4 46 1009.1
13:41 33.5 21 48 1009
13:52 33.4 20.6 47 1009
14:02 33.2 20.4 47 1008.9
14:12 33.2 20 46 1008.9
14:22 33.2 19.7 45 1008.9
14:32 33.3 19.4 44 1008.8
14:42 33.2 18.6 42 1008.7
14:52 33.3 17.9 40 1008.7
15:03 33.5 17.6 39 1008.6
15:12 33.8 17.5 38 1008.6
15:22 33.7 17 37 1008.5
15:33 33.8 17.1 37 1008.5
15:43 34 16.8 36 1008.4
15:52 34.2 17 36 1008.4
16:02 34.1 16.9 36 1008.3
16:13 34.3 16.6 35 1008.2
16:23 34.3 17.1 36 1008.1
16:33 34.6 16.5 34 1008.1
16:43 34.7 17.4 36 1008.1
16:53 34.7 17.4 36 1008
17:03 34.6 17.4 36 1007.9
17:13 34.6 16.9 35 1007.8
17:24 34.5 16.8 35 1007.8
17:33 34.3 15.7 33 1007.8
17:43 34.3 15.7 33 1007.7
17:54 34.3 15.2 32 1007.8
18:04 34.3 15.2 32 1007.7
18:13 34.3 15.2 32 1007.7
18:23 34.2 15.6 33 1007.8
18:34 33.8 14.8 32 1007.8
18:44 33.8 14.8 32 1007.8
18:54 33.7 15.2 33 1007.8
19:04 33.3 15.3 34 1007.9
19:14 33.1 15.6 35 1007.8
19:24 32.9 15.4 35 1007.8
19:34 32.7 15.7 36 1007.8
19:44 32.5 15.9 37 1007.8
19:54 32.3 15.8 37 1007.8
20:04 32 15.9 38 1007.8
20:15 31.9 16.2 39 1007.9
20:25 31.6 16.4 40 1008
20:34 31.2 16 40 1008
20:44 30.9 16.1 41 1008.1
20:55 30.5 16.1 42 1008.3
21:05 30.4 15.7 41 1008.4
21:14 30.2 15.9 42 1008.5
21:25 29.7 16.2 44 1008.6
21:35 29.2 17.1 48 1008.8
21:45 28.6 17.8 52 1008.8
21:55 27.9 18.3 56 1008.9
22:05 27.4 18.1 57 1009
22:15 27 18 58 1009
22:25 26.9 17.9 58 1009
22:36 26.7 18 59 1009.1
22:46 26.5 18.1 60 1009.1
22:55 26.2 18.1 61 1009.1
23:05 25.9 18.1 62 1009.1
23:16 25.6 18 63 1009.1
23:26 25.5 17.9 63 1009
23:35 25.2 17.9 64 1008.9
23:46 24.8 17.8 65 1008.9
23:56 24.5 17.7 66 1009

DAY STATISTIC

2018-07-20
TEMPERATURE
AVERAGE
28.4
HIGH
34.7
16:43
LOW
22.2
03:51
PRESSURE
AVERAGE
1009.2
HIGH
1010.2
01:50
LOW
1007.7
17:43
DEWPOINT
AVERAGE
17.2
HIGH
21.0
13:41
LOW
14.8
18:34
HUMIDITY
AVERAGE
53
HIGH
71
02:00
LOW
32
17:54
TEMPERATURE (°C)
LOW
22.2
HIGH
34.7
AVERAGE
28.4
PRESSURE (hpa)
LOW
1007.7
HIGH
1010.2
AVERAGE
1009.2
DEVICE